Ada, Ohio
Current Conditions -  °F | °C
As of 5:53 PM on Tuesday 21 Oct 2014 (Local Time) from KAOH Reporting Station
Overcast Overcast  
Wind Chill:   Ceiling: 3600
Heat Index:   Visibility: 10mi
Dew Point:   Wind: 9mph
Humidity: 74%   Direction: 360°N
Pressure: 30.11"   Gusts: NA
Location:  40.78°N, 83.82°W
Report Text: KAOH 212153Z AUTO 36008KT 10SM OVC036 09/04 A3011 RMK AO2 SLP198 T00890044
Loading
Personal Weather Stations






























Interactive Weather Map
Tropical Storm Tracking
New forecast layout! Learn more

10-Day Weather Forecast

Advertisements
Track Severe Weather on mobile